createdAt,value
2022-12-15T00:02:17.756Z,3.94
2022-12-15T00:05:03.228Z,3.86
2022-12-15T00:07:48.702Z,3.88
2022-12-15T00:10:34.375Z,3.88
2022-12-15T00:13:19.831Z,3.92
2022-12-15T00:16:06.596Z,3.95
2022-12-15T00:18:52.531Z,3.90
2022-12-15T00:21:37.960Z,3.91
2022-12-15T00:24:23.330Z,3.88
2022-12-15T00:27:08.946Z,3.87
2022-12-15T00:29:54.506Z,3.84
2022-12-15T00:32:41.176Z,3.93
2022-12-15T00:35:26.629Z,3.97
2022-12-15T00:38:12.240Z,3.95
2022-12-15T00:40:39.168Z,3.92
2022-12-15T00:43:06.076Z,3.89
2022-12-15T00:45:51.546Z,3.87
2022-12-15T00:48:18.415Z,3.86
2022-12-15T00:50:54.309Z,3.90
2022-12-15T00:53:40.642Z,3.95
2022-12-15T00:56:26.269Z,3.93
2022-12-15T00:59:11.879Z,3.88
2022-12-15T01:01:57.528Z,3.89
2022-12-15T01:04:43.017Z,3.87
2022-12-15T01:07:28.524Z,3.88
2022-12-15T01:10:13.971Z,3.87
2022-12-15T01:12:59.543Z,3.86
2022-12-15T01:15:45.155Z,3.93
2022-12-15T01:18:30.637Z,3.94
2022-12-15T01:21:05.335Z,3.90
2022-12-15T01:23:33.304Z,3.91
2022-12-15T01:26:01.132Z,3.95
2022-12-15T01:28:28.283Z,3.98
2022-12-15T01:30:55.695Z,4.02
2022-12-15T01:33:22.901Z,4.03
2022-12-15T01:36:00.180Z,3.98
2022-12-15T01:38:27.962Z,3.95
2022-12-15T01:41:00.002Z,3.98
2022-12-15T01:43:34.153Z,3.92
2022-12-15T01:46:02.839Z,3.95
2022-12-15T01:48:36.569Z,3.95
2022-12-15T01:51:10.908Z,3.91
2022-12-15T01:53:52.951Z,4.00
2022-12-15T01:56:20.727Z,4.02
2022-12-15T01:58:50.011Z,4.02
2022-12-15T02:01:17.614Z,3.97
2022-12-15T02:03:45.352Z,3.96
2022-12-15T02:06:12.342Z,3.96
2022-12-15T02:08:40.140Z,3.97
2022-12-15T02:11:22.085Z,3.98
2022-12-15T02:13:58.820Z,4.02
2022-12-15T02:16:38.779Z,4.05
2022-12-15T02:19:11.480Z,4.03
2022-12-15T02:21:49.809Z,4.00
2022-12-15T02:24:49.828Z,4.05
2022-12-15T02:27:31.940Z,4.04
2022-12-15T02:30:20.522Z,3.99
2022-12-15T02:33:06.030Z,3.97
2022-12-15T02:35:50.419Z,4.00
2022-12-15T02:38:32.592Z,4.05
2022-12-15T02:41:04.022Z,4.03
2022-12-15T02:43:34.560Z,4.02
2022-12-15T02:46:09.896Z,4.01
2022-12-15T02:48:36.731Z,4.07
2022-12-15T02:51:15.703Z,4.09
2022-12-15T02:54:00.627Z,4.11
2022-12-15T02:56:39.630Z,4.11
2022-12-15T02:59:26.100Z,4.07
2022-12-15T03:01:59.997Z,4.09
2022-12-15T03:04:27.546Z,4.10
2022-12-15T03:07:01.228Z,4.11
2022-12-15T03:09:28.626Z,4.14
2022-12-15T03:11:55.477Z,4.13
2022-12-15T03:14:22.404Z,4.12
2022-12-15T03:16:49.303Z,4.11
2022-12-15T03:19:16.225Z,4.15
2022-12-15T03:21:43.170Z,4.08
2022-12-15T03:24:10.199Z,4.05
2022-12-15T03:26:37.329Z,4.08
2022-12-15T03:29:04.411Z,4.09
2022-12-15T03:31:31.441Z,4.09
2022-12-15T03:33:58.374Z,4.09
2022-12-15T03:36:25.263Z,4.08
2022-12-15T03:38:52.299Z,4.05
2022-12-15T03:41:19.545Z,4.05
2022-12-15T03:43:49.591Z,4.06
2022-12-15T03:46:17.203Z,4.05
2022-12-15T03:48:44.138Z,4.09
2022-12-15T03:51:11.028Z,4.05
2022-12-15T03:53:37.921Z,4.01
2022-12-15T03:56:04.978Z,4.07
2022-12-15T03:58:31.903Z,4.06
2022-12-15T04:00:58.844Z,4.08
2022-12-15T04:03:25.856Z,4.10
2022-12-15T04:05:52.851Z,4.05
2022-12-15T04:08:26.966Z,4.02
2022-12-15T04:10:53.900Z,4.04
2022-12-15T04:13:21.641Z,4.03
2022-12-15T04:15:48.517Z,3.99
2022-12-15T04:18:15.460Z,4.01
2022-12-15T04:20:42.405Z,3.99
2022-12-15T04:23:09.567Z,3.97
2022-12-15T04:25:55.953Z,3.97
2022-12-15T04:28:41.678Z,3.99
2022-12-15T04:31:48.532Z,3.97
2022-12-15T04:34:37.209Z,3.96
2022-12-15T04:37:25.433Z,3.97
2022-12-15T04:40:12.100Z,3.96
2022-12-15T04:43:01.724Z,3.94
2022-12-15T04:45:47.313Z,3.95
2022-12-15T04:48:32.879Z,3.98
2022-12-15T04:51:18.625Z,3.92
2022-12-15T04:54:04.630Z,3.92
2022-12-15T04:56:51.171Z,3.89
2022-12-15T04:59:36.702Z,3.92
2022-12-15T05:02:22.509Z,3.92
2022-12-15T05:05:07.913Z,3.85
2022-12-15T05:07:53.693Z,3.87
2022-12-15T05:10:39.181Z,3.80
2022-12-15T05:13:25.911Z,3.81
2022-12-15T05:16:11.484Z,3.85
2022-12-15T05:18:57.084Z,3.75
2022-12-15T05:21:42.532Z,3.69
2022-12-15T05:24:28.137Z,3.81
2022-12-15T05:27:13.602Z,3.73
2022-12-15T05:29:59.166Z,3.74
2022-12-15T05:32:26.029Z,3.76
2022-12-15T05:34:54.280Z,3.70
2022-12-15T05:37:21.236Z,3.65
2022-12-15T05:39:48.095Z,3.67
2022-12-15T05:42:14.963Z,3.70
2022-12-15T05:44:41.880Z,3.67
2022-12-15T05:47:09.513Z,3.66
2022-12-15T05:49:36.400Z,3.62
2022-12-15T05:52:03.520Z,3.60
2022-12-15T05:54:30.606Z,3.62
2022-12-15T05:56:57.480Z,3.64
2022-12-15T05:59:24.367Z,3.59
2022-12-15T06:01:51.340Z,3.55
2022-12-15T06:04:18.492Z,3.51
2022-12-15T06:06:45.477Z,3.44
2022-12-15T06:09:12.581Z,3.46
2022-12-15T06:11:39.471Z,3.50
2022-12-15T06:14:06.417Z,3.48
2022-12-15T06:16:33.491Z,3.42
2022-12-15T06:19:01.771Z,3.48
2022-12-15T06:21:35.483Z,3.43
2022-12-15T06:24:03.764Z,3.44
2022-12-15T06:26:34.635Z,3.42
2022-12-15T06:29:05.387Z,3.38
2022-12-15T06:31:34.165Z,3.40
2022-12-15T06:34:07.652Z,3.39
2022-12-15T06:36:34.821Z,3.42
2022-12-15T06:39:04.518Z,3.41
2022-12-15T06:41:31.739Z,3.39
2022-12-15T06:43:59.265Z,3.42
2022-12-15T06:46:27.107Z,3.48
2022-12-15T06:48:54.396Z,3.42
2022-12-15T06:51:21.302Z,3.37
2022-12-15T06:53:54.475Z,3.33
2022-12-15T06:56:32.491Z,3.35
2022-12-15T06:59:00.682Z,3.35
2022-12-15T07:01:28.135Z,3.38
2022-12-15T07:03:55.733Z,3.36
2022-12-15T07:06:23.232Z,3.40
2022-12-15T07:08:56.818Z,3.40
2022-12-15T07:11:24.436Z,3.40
2022-12-15T07:13:54.976Z,3.37
2022-12-15T07:16:23.134Z,3.34
2022-12-15T07:18:50.147Z,3.29
2022-12-15T07:21:17.619Z,3.36
2022-12-15T07:24:01.141Z,3.37
2022-12-15T07:26:28.792Z,3.38
2022-12-15T07:28:56.426Z,3.41
2022-12-15T07:31:23.932Z,3.44
2022-12-15T07:33:52.840Z,3.46
2022-12-15T07:36:20.231Z,3.45
2022-12-15T07:38:51.052Z,3.44
2022-12-15T07:41:19.498Z,3.44
2022-12-15T07:43:48.038Z,3.44
2022-12-15T07:46:15.212Z,3.49
2022-12-15T07:48:42.180Z,3.49
2022-12-15T07:51:17.232Z,3.50
2022-12-15T07:53:46.716Z,3.49
2022-12-15T07:56:13.902Z,3.46
2022-12-15T07:58:40.751Z,3.46
2022-12-15T08:01:10.307Z,3.47
2022-12-15T08:03:37.988Z,3.48
2022-12-15T08:06:10.360Z,3.51
2022-12-15T08:08:37.821Z,3.52
2022-12-15T08:11:05.933Z,3.47
2022-12-15T08:16:21.312Z,3.51
2022-12-15T08:18:57.427Z,3.50
2022-12-15T08:21:24.772Z,3.51
2022-12-15T08:23:51.673Z,3.51
2022-12-15T08:26:22.663Z,3.53
2022-12-15T08:28:53.836Z,3.54
2022-12-15T08:31:23.422Z,3.59
2022-12-15T08:33:51.071Z,3.59
2022-12-15T08:36:19.385Z,3.60
2022-12-15T08:38:46.533Z,3.58
2022-12-15T08:41:19.766Z,3.58
2022-12-15T08:43:49.250Z,3.59
2022-12-15T08:46:18.348Z,3.60
2022-12-15T08:48:45.781Z,3.59
2022-12-15T08:51:14.926Z,3.59
2022-12-15T08:53:42.040Z,3.61
2022-12-15T08:56:17.570Z,3.63
2022-12-15T08:58:46.023Z,3.60
2022-12-15T09:01:20.733Z,3.59
2022-12-15T09:03:50.569Z,3.62
2022-12-15T09:06:22.720Z,3.64
2022-12-15T09:08:51.785Z,3.62
2022-12-15T09:11:18.671Z,3.65
2022-12-15T09:13:45.559Z,3.66
2022-12-15T09:16:16.261Z,3.69
2022-12-15T09:18:44.886Z,3.73
2022-12-15T09:21:12.621Z,3.73
2022-12-15T09:23:40.232Z,3.71
2022-12-15T09:26:13.000Z,3.69
2022-12-15T09:28:40.202Z,3.68
2022-12-15T09:31:28.866Z,3.68
2022-12-15T09:33:58.451Z,3.68
2022-12-15T09:36:26.319Z,3.70
2022-12-15T09:38:53.198Z,3.69
2022-12-15T09:41:27.386Z,3.69
2022-12-15T09:44:11.344Z,3.66
2022-12-15T09:47:06.081Z,3.72
2022-12-15T09:49:52.760Z,3.69
2022-12-15T09:52:29.369Z,3.71
2022-12-15T09:54:57.888Z,3.72
2022-12-15T09:57:37.092Z,3.74
2022-12-15T10:00:13.006Z,3.74
2022-12-15T10:03:07.077Z,3.78
2022-12-15T10:08:56.702Z,3.77
2022-12-15T10:11:26.566Z,3.75
2022-12-15T10:14:11.312Z,3.74
2022-12-15T10:16:44.096Z,3.72
2022-12-15T10:19:27.292Z,3.75
2022-12-15T10:21:54.253Z,3.76
2022-12-15T10:24:59.719Z,3.77
2022-12-15T10:27:28.895Z,3.78
2022-12-15T10:30:06.678Z,3.79
2022-12-15T10:32:57.527Z,3.79
2022-12-15T10:35:29.110Z,3.80
2022-12-15T10:38:01.035Z,3.83
2022-12-15T10:40:52.169Z,3.82
2022-12-15T10:43:37.539Z,3.82
2022-12-15T10:46:16.114Z,3.84
2022-12-15T10:48:48.685Z,3.84
2022-12-15T10:51:25.405Z,3.84
2022-12-15T10:54:05.121Z,3.87
2022-12-15T10:56:34.115Z,3.87
2022-12-15T10:59:23.678Z,3.88
2022-12-15T11:01:51.507Z,3.88
2022-12-15T11:04:55.107Z,3.90
2022-12-15T11:07:22.017Z,3.91
2022-12-15T11:09:51.078Z,3.91
2022-12-15T11:12:41.845Z,3.94
2022-12-15T11:15:23.998Z,3.95
2022-12-15T11:17:56.662Z,3.95
2022-12-15T11:20:31.968Z,3.96
2022-12-15T11:23:06.441Z,3.98
2022-12-15T11:25:34.505Z,3.97
2022-12-15T11:28:05.054Z,4.00
2022-12-15T11:30:35.765Z,4.02
2022-12-15T11:33:03.309Z,4.01
2022-12-15T11:36:08.074Z,4.03
2022-12-15T11:38:37.736Z,4.03
2022-12-15T11:41:25.596Z,4.03
2022-12-15T11:44:10.215Z,4.05
2022-12-15T11:46:42.775Z,4.05
2022-12-15T11:49:31.182Z,4.06
2022-12-15T11:52:07.444Z,4.07
2022-12-15T11:54:39.032Z,4.06
2022-12-15T11:57:26.820Z,4.05
2022-12-15T12:00:18.850Z,4.07
2022-12-15T12:03:20.202Z,4.08
2022-12-15T12:05:53.269Z,4.08
2022-12-15T12:08:44.199Z,4.09
2022-12-15T12:11:15.366Z,4.09
2022-12-15T12:13:54.460Z,4.12
2022-12-15T12:16:58.693Z,4.12
2022-12-15T12:19:35.564Z,4.14
2022-12-15T12:22:24.026Z,4.15
2022-12-15T12:25:06.342Z,4.14
2022-12-15T12:27:40.910Z,4.14
2022-12-15T12:30:19.004Z,4.17
2022-12-15T12:32:51.350Z,4.18
2022-12-15T12:35:48.715Z,4.19
2022-12-15T12:38:20.530Z,4.20
2022-12-15T12:41:11.040Z,4.24
2022-12-15T12:43:44.794Z,4.24
2022-12-15T12:46:40.623Z,4.26
2022-12-15T12:49:33.025Z,4.28
2022-12-15T12:52:02.754Z,4.28
2022-12-15T12:54:35.726Z,4.30
2022-12-15T12:57:22.844Z,4.32
2022-12-15T13:00:13.595Z,4.33
2022-12-15T13:02:47.061Z,4.36
2022-12-15T13:05:32.084Z,4.36
2022-12-15T13:08:05.475Z,4.39
2022-12-15T13:10:38.090Z,4.40
2022-12-15T13:13:39.002Z,4.42
2022-12-15T13:16:24.664Z,4.45
2022-12-15T13:19:03.842Z,4.47
2022-12-15T13:21:44.853Z,4.49
2022-12-15T13:24:37.776Z,4.51
2022-12-15T13:27:11.738Z,4.53
2022-12-15T13:29:54.624Z,4.54
2022-12-15T13:32:33.721Z,4.54
2022-12-15T13:35:29.873Z,4.55
2022-12-15T13:37:57.649Z,4.57
2022-12-15T13:40:38.262Z,4.58
2022-12-15T13:43:05.142Z,4.58
2022-12-15T13:45:36.605Z,4.54
2022-12-15T13:48:43.420Z,4.57
2022-12-15T13:51:34.864Z,4.60
2022-12-15T13:54:15.764Z,4.60
2022-12-15T13:56:51.686Z,4.61
2022-12-15T13:59:33.743Z,4.60
2022-12-15T14:02:01.356Z,4.63
2022-12-15T14:04:28.368Z,4.64
2022-12-15T14:06:58.291Z,4.68
2022-12-15T14:09:28.552Z,4.68
2022-12-15T14:11:55.722Z,4.69
2022-12-15T14:14:28.582Z,4.72
2022-12-15T14:16:59.301Z,4.71
2022-12-15T14:19:26.843Z,4.69
2022-12-15T14:21:57.136Z,4.71
2022-12-15T14:24:40.000Z,4.70
2022-12-15T14:27:07.589Z,4.74
2022-12-15T14:29:34.732Z,4.74
2022-12-15T14:32:01.824Z,4.73
2022-12-15T14:34:39.056Z,4.75
2022-12-15T14:37:14.940Z,4.76
2022-12-15T14:39:50.275Z,4.77
2022-12-15T14:42:25.779Z,4.77
2022-12-15T14:44:57.830Z,4.79
2022-12-15T14:47:27.471Z,4.80
2022-12-15T14:49:56.002Z,4.81
2022-12-15T14:52:28.507Z,4.81
2022-12-15T14:54:57.977Z,4.81
2022-12-15T14:57:38.517Z,4.82
2022-12-15T15:00:32.142Z,4.83
2022-12-15T15:03:10.726Z,3.75
2022-12-15T15:06:02.691Z,4.83
2022-12-15T15:08:35.861Z,4.84
2022-12-15T15:11:30.239Z,4.86
2022-12-15T15:14:00.712Z,4.87
2022-12-15T15:16:27.989Z,4.86
2022-12-15T15:18:56.241Z,4.87
2022-12-15T15:21:25.423Z,4.89
2022-12-15T15:24:05.071Z,4.91
2022-12-15T15:26:32.135Z,4.90
2022-12-15T15:28:59.142Z,4.91
2022-12-15T15:31:27.635Z,4.94
2022-12-15T15:33:58.072Z,4.92
2022-12-15T15:36:30.026Z,4.93
2022-12-15T15:38:58.349Z,4.93
2022-12-15T15:41:33.218Z,4.95
2022-12-15T15:44:02.367Z,4.96
2022-12-15T15:46:34.674Z,4.95
2022-12-15T15:49:07.904Z,4.94
2022-12-15T15:51:35.295Z,4.96
2022-12-15T15:54:05.817Z,4.96
2022-12-15T15:56:32.764Z,4.97
2022-12-15T15:59:06.509Z,4.97
2022-12-15T16:01:33.398Z,4.98
2022-12-15T16:04:00.415Z,4.99
2022-12-15T16:06:27.688Z,5.00
2022-12-15T16:08:55.171Z,5.01
2022-12-15T16:11:22.934Z,5.00
2022-12-15T16:13:50.083Z,4.98
2022-12-15T16:16:20.206Z,4.99
2022-12-15T16:18:47.556Z,5.00
2022-12-15T16:21:15.825Z,5.00
2022-12-15T16:23:45.297Z,5.01
2022-12-15T16:26:16.393Z,5.01
2022-12-15T16:28:43.296Z,5.01
2022-12-15T16:31:16.374Z,5.02
2022-12-15T16:33:43.314Z,5.01
2022-12-15T16:36:16.518Z,5.00
2022-12-15T16:38:43.819Z,5.01
2022-12-15T16:41:14.726Z,5.01
2022-12-15T16:43:47.732Z,5.01
2022-12-15T16:46:15.697Z,5.02
2022-12-15T16:48:43.580Z,5.02
2022-12-15T16:51:25.571Z,5.03
2022-12-15T16:53:52.468Z,5.02
2022-12-15T16:56:19.349Z,5.01
2022-12-15T16:58:48.919Z,5.00
2022-12-15T17:01:19.995Z,5.00
2022-12-15T17:03:47.467Z,4.99
2022-12-15T17:06:16.457Z,4.98
2022-12-15T17:08:54.902Z,4.99
2022-12-15T17:11:24.043Z,4.99
2022-12-15T17:13:52.463Z,4.98
2022-12-15T17:16:20.827Z,4.98
2022-12-15T17:18:48.109Z,4.99
2022-12-15T17:21:25.408Z,4.99
2022-12-15T17:23:55.037Z,4.97
2022-12-15T17:26:29.106Z,4.98
2022-12-15T17:28:58.867Z,4.99
2022-12-15T17:31:35.147Z,4.97
2022-12-15T17:34:22.399Z,4.97
2022-12-15T17:36:49.352Z,4.96
2022-12-15T17:39:17.768Z,4.97
2022-12-15T17:42:01.738Z,4.96
2022-12-15T17:44:37.875Z,4.97
2022-12-15T17:47:06.783Z,4.96
2022-12-15T17:49:37.323Z,4.96
2022-12-15T17:52:34.631Z,4.97
2022-12-15T17:55:02.595Z,4.97
2022-12-15T17:57:32.711Z,4.95
2022-12-15T18:00:02.215Z,4.96
2022-12-15T18:02:29.349Z,4.96
2022-12-15T18:04:56.480Z,4.97
2022-12-15T18:07:24.290Z,4.98
2022-12-15T18:09:52.158Z,4.98
2022-12-15T18:12:29.263Z,4.98
2022-12-15T18:14:57.051Z,4.98
2022-12-15T18:17:24.053Z,4.97
2022-12-15T18:19:50.916Z,4.98
2022-12-15T18:22:22.611Z,4.99
2022-12-15T18:24:51.715Z,5.00
2022-12-15T18:27:23.895Z,4.99
2022-12-15T18:29:51.304Z,5.01
2022-12-15T18:32:18.718Z,5.01
2022-12-15T18:34:45.645Z,5.01
2022-12-15T18:37:20.319Z,5.00
2022-12-15T18:39:47.501Z,4.99
2022-12-15T18:42:21.901Z,5.01
2022-12-15T18:44:50.990Z,5.01
2022-12-15T18:47:19.835Z,5.01
2022-12-15T18:49:47.315Z,5.02
2022-12-15T18:52:19.012Z,5.02
2022-12-15T18:54:47.639Z,5.01
2022-12-15T18:57:31.953Z,5.02
2022-12-15T19:00:19.154Z,5.00
2022-12-15T19:02:46.259Z,5.00
2022-12-15T19:05:28.047Z,5.00
2022-12-15T19:08:20.319Z,4.99
2022-12-15T19:11:12.419Z,5.00
2022-12-15T19:13:39.650Z,4.98
2022-12-15T19:16:10.428Z,4.97
2022-12-15T19:18:55.857Z,4.97
2022-12-15T19:21:43.191Z,4.97
2022-12-15T19:24:18.479Z,4.96
2022-12-15T19:26:45.361Z,4.96
2022-12-15T19:29:22.711Z,4.95
2022-12-15T19:31:50.018Z,4.96
2022-12-15T19:34:16.991Z,4.96
2022-12-15T19:36:44.014Z,4.95
2022-12-15T19:39:23.993Z,4.96
2022-12-15T19:41:51.377Z,4.95
2022-12-15T19:44:18.253Z,4.96
2022-12-15T19:46:45.655Z,4.94
2022-12-15T19:49:12.525Z,4.95
2022-12-15T19:51:39.751Z,4.94
2022-12-15T19:54:06.804Z,4.95
2022-12-15T19:56:33.715Z,4.94
2022-12-15T19:59:00.613Z,4.96
2022-12-15T20:01:27.741Z,4.96
2022-12-15T20:03:54.662Z,4.95
2022-12-15T20:06:25.532Z,4.94
2022-12-15T20:08:54.804Z,4.95
2022-12-15T20:11:26.585Z,4.94
2022-12-15T20:13:54.574Z,4.92
2022-12-15T20:16:22.225Z,4.92
2022-12-15T20:18:54.205Z,4.92
2022-12-15T20:21:22.975Z,4.91
2022-12-15T20:23:53.828Z,4.92
2022-12-15T20:26:21.647Z,4.90
2022-12-15T20:28:48.649Z,4.91
2022-12-15T20:31:18.419Z,4.91
2022-12-15T20:33:45.862Z,4.91
2022-12-15T20:36:15.601Z,4.91
2022-12-15T20:38:43.120Z,4.91
2022-12-15T20:41:17.355Z,4.89
2022-12-15T20:43:44.498Z,4.89
2022-12-15T20:46:18.180Z,4.90
2022-12-15T20:48:45.587Z,4.89
2022-12-15T20:51:27.405Z,4.89
2022-12-15T20:53:56.088Z,4.89
2022-12-15T20:56:23.480Z,4.87
2022-12-15T20:58:51.288Z,4.86
2022-12-15T21:01:23.991Z,4.85
2022-12-15T21:03:52.261Z,4.86
2022-12-15T21:06:19.604Z,4.85
2022-12-15T21:08:46.600Z,4.84
2022-12-15T21:11:24.538Z,4.84
2022-12-15T21:13:53.197Z,4.84
2022-12-15T21:16:22.888Z,4.83
2022-12-15T21:19:19.221Z,4.82
2022-12-15T21:21:40.966Z,4.82
2022-12-15T21:24:16.478Z,4.81
2022-12-15T21:26:43.619Z,4.80
2022-12-15T21:29:18.822Z,4.81
2022-12-15T21:31:45.953Z,4.82
2022-12-15T21:34:13.524Z,4.81
2022-12-15T21:36:44.680Z,4.81
2022-12-15T21:39:19.858Z,4.80
2022-12-15T21:41:46.736Z,4.81
2022-12-15T21:44:15.117Z,4.82
2022-12-15T21:46:42.567Z,4.81
2022-12-15T21:49:21.956Z,4.79
2022-12-15T21:51:54.987Z,4.81
2022-12-15T21:54:30.372Z,4.80
2022-12-15T21:56:58.631Z,4.78
2022-12-15T21:59:27.199Z,4.77
2022-12-15T22:01:55.579Z,4.77
2022-12-15T22:04:35.681Z,4.75
2022-12-15T22:07:02.784Z,4.75
2022-12-15T22:09:29.828Z,4.73
2022-12-15T22:11:57.251Z,4.74
2022-12-15T22:14:26.683Z,4.72
2022-12-15T22:16:54.156Z,4.72
2022-12-15T22:19:22.535Z,4.71
2022-12-15T22:21:49.635Z,4.70
2022-12-15T22:24:16.730Z,4.69
2022-12-15T22:26:44.159Z,4.70
2022-12-15T22:29:17.645Z,4.67
2022-12-15T22:31:45.004Z,4.68
2022-12-15T22:34:19.399Z,4.67
2022-12-15T22:36:46.750Z,4.67
2022-12-15T22:39:15.159Z,4.67
2022-12-15T22:41:44.862Z,4.65
2022-12-15T22:44:23.910Z,4.65
2022-12-15T22:46:52.527Z,4.65
2022-12-15T22:49:24.308Z,4.66
2022-12-15T22:51:51.534Z,4.65
2022-12-15T22:54:26.708Z,4.64
2022-12-15T22:57:04.195Z,4.63
2022-12-15T22:59:38.222Z,4.64
2022-12-15T23:02:05.570Z,4.63
2022-12-15T23:04:32.609Z,4.62
2022-12-15T23:07:00.410Z,4.60
2022-12-15T23:09:27.333Z,4.58
2022-12-15T23:11:55.024Z,4.58
2022-12-15T23:14:41.890Z,4.55
2022-12-15T23:17:09.017Z,4.57
2022-12-15T23:19:36.028Z,4.55
2022-12-15T23:22:02.943Z,4.54
2022-12-15T23:24:31.472Z,4.53
2022-12-15T23:26:58.328Z,4.54
2022-12-15T23:29:25.222Z,4.52
2022-12-15T23:31:52.342Z,4.49
2022-12-15T23:34:19.224Z,4.47
2022-12-15T23:36:46.656Z,4.49
2022-12-15T23:39:13.849Z,4.41
2022-12-15T23:41:40.720Z,4.47
2022-12-15T23:44:07.592Z,4.45
2022-12-15T23:46:34.591Z,4.35
2022-12-15T23:49:01.506Z,4.32
2022-12-15T23:51:28.369Z,4.24
2022-12-15T23:53:55.271Z,4.22
2022-12-15T23:56:24.120Z,4.19
2022-12-15T23:58:56.824Z,4.17
